Pagina principale
METAR-TAF:

METAR-TAF

Aeroporti :

Aeroporto di Belgrado-Nikola Tesla

Belgrado, Serbia

latitudine: 44-49N, longitudine: 020-17E, altezza: 96 m

Osservazione

Il bollettino è stato emesso 29 minuti fa, alle 12:30 UTC
Vento 6 kt da ovest, variando fra sud-ovest e ovest/nord-ovest
Temperature 28°C
Umidità 55%
Pressione 1015 hPa
Visibilità 10 km o più
Poco nuvoloso ad un'altezza di 4000 ft

METAR: LYBE 151230Z 26006KT 220V300 9999 FEW040 28/18 Q1015 NOSIG

Ora: 14:59 (12:59 UTC)

Previsione

Il bollettino è stato emesso 1 ora e 59 minuti fa, alle 11:00 UTC
Previsione valida dal 15 alle 12 UTC al 16 alle 12 UTC
Vento 6 kt da ovest
Visibilità 10 km o più
Nubi sparse ad un'altezza di 3000 ft
Probabilità 30% :
Temporaneamente
dal 16 alle 03 UTC al 16 alle 06 UTC
Visibilità: 3000 m
foschia

TAF: LYBE 151100Z 1512/1612 27006KT 9999 SCT030 TX28/1513Z TN18/1603Z PROB30 TEMPO 1603/1606 3000 BR

Osservazioni e previsioni meteorologiche di più di 4000 aeroporti (messaggi METAR e TAF).

Le stazioni disponibili sono rappresentate dai dischi gialli e rossi sulla carta.

Puntare il mouse per vedere il nome della stazione.

Clicca sopra per visualizzare le osservazioni e previsioni meteorologiche.

Per cambiare la mappa : fare clic sui pulsanti verdi con una croce nera per ingrandire, il pulsante verde con un trattino per diminuire, o sulla freccia verde per le mappe adiacenti.


METAR-TAF: